Sacramento, CA (95815)

12:47 PM PST on February 10, 2016 (GMT -0800)
North Sac. | | Change Station
CLOSE
Current Station
Personal Weather Station
Location: Sacramento, CA
Elevation: 36 ft
Nearby Weather Stations

Elev 36 ft 38.60 °N, 121.47 °W | Updated 5 seconds ago

Overcast
Overcast
66.0 °F
Feels Like 66.0 °F
N
4.0
Wind Variable Wind from WNW
Gusts 4.9 mph

Today
High -- | Low -- °F
--% Chance of Precip.
Yesterday
High -- | Low -- °F
Precip. -- in
Pressure 30.26 in
Visibility 10.0 miles
Clouds Overcast 100 ft
Dew Point 49 °F
Humidity 54%
Rainfall 0.00 in
Snow Depth Not available.
7:02 AM 5:37 PM
Waxing Crescent, 7% visible
METAR KMCC 102035Z AUTO 35008KT 10SM OVC001 17/09 A3026 RMK AO2
Pressure 30.26 in
Visibility 10.0 miles
Clouds Overcast 100 ft
Dew Point 49 °F
Humidity 54%
Rainfall 0.00 in
Snow Depth Not available.
7:02 AM 5:37 PM
Waxing Crescent, 7% visible
METAR KMCC 102035Z AUTO 35008KT 10SM OVC001 17/09 A3026 RMK AO2

10-Day Weather Forecast

Almanac

Astronomy

Feb. 10, 2016 Rise Set
Actual Time
Civil Twilight
Nautical Twilight
Astronomical Twilight
Moon
Length of Visible Light
Length of Day
Tomorrow will be .
, % of the Moon is Illuminated

Today's Extremes

State Highs State Lows

Community

WunderPhotos

Upload Photos

1,891,945 photos uploaded!

WunderBlog® & News

Nearby

Air Quality

  Air Quality AQ Index Pollutant
Not available.

Snow Depth

Station Depth Elevation

Earthquake Activity

City Distance Mag. Time & Date
Minimum magnitude displayed is 2.5.

Coastal Water Temperatures

Place Temperature

Stations

Nearby Weather Stations

Station Location Temp. Windchill Dew Point Humidity Wind Precip. Elev Updated Type
                   

Watches & Warnings

There are currently no watches in effect.